Portada
METAR-TAF:

METAR-TAF

Aeroports :

Aeroport Internacional de Phu Quoc

Phu Quoc, Vietnam

latitud: 10-10-18N, longitud: 103-59-28E, altitud: 11 m

Observació

L'informe es va fer fa 21 minuts, a les 19:00 UTC
Vent 1 kt amb direcció variable
Temperatura 25°C
Humitat 83%
Pressió 1009 hPa
Visibilitat 10 km o més
Escasses núvols a una alçada de 1500 ft

METAR: VVPQ 291900Z VRB01KT 9999 FEW015 25/22 Q1009 NOSIG

Hora: 02:21 (19:21 UTC)

Pronòstic

L'informe es va fer fa 2 hores i 21 minuts, a les 17:00 UTC
Pronòstic vàlid del 29 a les 18 UTC al 30 a les 18 UTC
Vent 2 kt amb direcció variable
Visibilitat 10 km o més
Núvols disperses a una alçada de 1500 ft
Evolucionant progressivament
l' 30 a les 02 UTC al 30 a les 03 UTC
Vent 10 kt del Sud/Sud-Oest

TAF: VVPQ 291700Z 2918/3018 VRB02KT 9999 SCT015 BECMG 3002/3003 20010KT

Observacions i pronòstics meteorològics de més de 4000 aeroports (METAR i TAF).

Les estacions disponibles són els punts grocs i vermells al mapa.

Posi el ratolí al punt desitjat per veure el nom de l'estació.

Feu clic per veure les observacions i els pronòstics meteorològics.

Per canviar el mapa: feu clic els botons verds amb una creu de color negre per apropar; al botó verd amb un guió per allunyar la imatge; o en les fletxes verdes per a mapes adjacents.


METAR-TAF: